TAF LEGA
LEGA 071100Z 0712/0812 VRB02KT CAVOK TX17/0715Z TN05/0807Z BECMG 0714/0716 29010KT BECMG 0720/0722 VRB02KT TEMPO 0721/0810 BKN014 PROB40 TEMPO 0803/0809 30010KT 4000 RA BR BKN008=
METAR LEGA
LEGA 081300Z 31010KT 290V350 9999 BKN034 12/04 Q1020=
LEGA 081230Z 32010KT 270V360 9999 BKN030 12/05 Q1020=
LEGA 081200Z 35007KT 320V030 9999 BKN024 10/04 Q1020=
LEGA 081130Z VRB03KT 9999 BKN024 10/05 Q1020=
LEGA 081100Z 35008KT 9999 BKN034 10/05 Q1021=
WC LEGA
WS LEGA
WV LEGA